sensor_id;sensor_type;location;lat;lon;timestamp;P1;durP1;ratioP1;P2;durP2;ratioP2
6209;SDS011;3138;52.550;13.148;2024-01-15T00:01:30;31.20;;;18.30;;
6209;SDS011;3138;52.550;13.148;2024-01-15T00:03:57;35.67;;;18.07;;
6209;SDS011;3138;52.550;13.148;2024-01-15T00:06:24;35.80;;;17.70;;
6209;SDS011;3138;52.550;13.148;2024-01-15T00:08:52;33.83;;;17.93;;
6209;SDS011;3138;52.550;13.148;2024-01-15T00:11:18;27.43;;;16.57;;
6209;SDS011;3138;52.550;13.148;2024-01-15T00:13:45;36.43;;;18.10;;
6209;SDS011;3138;52.550;13.148;2024-01-15T00:16:12;30.23;;;17.80;;
6209;SDS011;3138;52.550;13.148;2024-01-15T00:18:40;34.17;;;18.40;;
6209;SDS011;3138;52.550;13.148;2024-01-15T00:21:07;29.80;;;17.90;;
6209;SDS011;3138;52.550;13.148;2024-01-15T00:23:34;32.37;;;17.17;;
6209;SDS011;3138;52.550;13.148;2024-01-15T00:26:01;28.37;;;16.23;;
6209;SDS011;3138;52.550;13.148;2024-01-15T00:28:27;28.50;;;15.80;;
6209;SDS011;3138;52.550;13.148;2024-01-15T00:30:54;27.17;;;15.23;;
6209;SDS011;3138;52.550;13.148;2024-01-15T00:33:21;30.73;;;15.60;;
6209;SDS011;3138;52.550;13.148;2024-01-15T00:35:49;26.70;;;14.97;;
6209;SDS011;3138;52.550;13.148;2024-01-15T00:38:16;24.13;;;15.43;;
6209;SDS011;3138;52.550;13.148;2024-01-15T00:40:43;24.23;;;15.27;;
6209;SDS011;3138;52.550;13.148;2024-01-15T00:43:10;26.87;;;15.60;;
6209;SDS011;3138;52.550;13.148;2024-01-15T00:45:37;26.60;;;14.60;;
6209;SDS011;3138;52.550;13.148;2024-01-15T00:48:04;34.40;;;15.40;;
6209;SDS011;3138;52.550;13.148;2024-01-15T00:50:31;36.13;;;15.43;;
6209;SDS011;3138;52.550;13.148;2024-01-15T00:52:59;25.23;;;14.57;;
6209;SDS011;3138;52.550;13.148;2024-01-15T00:55:26;31.57;;;16.53;;
6209;SDS011;3138;52.550;13.148;2024-01-15T00:57:54;27.77;;;14.27;;
6209;SDS011;3138;52.550;13.148;2024-01-15T01:00:21;28.17;;;14.33;;
6209;SDS011;3138;52.550;13.148;2024-01-15T01:02:48;32.47;;;15.03;;
6209;SDS011;3138;52.550;13.148;2024-01-15T01:05:15;27.87;;;15.80;;
6209;SDS011;3138;52.550;13.148;2024-01-15T01:07:42;23.20;;;13.80;;
6209;SDS011;3138;52.550;13.148;2024-01-15T01:10:10;23.83;;;14.50;;
6209;SDS011;3138;52.550;13.148;2024-01-15T01:12:37;27.13;;;15.30;;
6209;SDS011;3138;52.550;13.148;2024-01-15T01:15:04;22.77;;;14.60;;
6209;SDS011;3138;52.550;13.148;2024-01-15T01:17:31;36.00;;;14.30;;
6209;SDS011;3138;52.550;13.148;2024-01-15T01:19:58;27.10;;;13.77;;
6209;SDS011;3138;52.550;13.148;2024-01-15T01:22:25;30.50;;;14.33;;
6209;SDS011;3138;52.550;13.148;2024-01-15T01:24:52;32.63;;;16.00;;
6209;SDS011;3138;52.550;13.148;2024-01-15T01:27:20;24.90;;;13.10;;
6209;SDS011;3138;52.550;13.148;2024-01-15T01:29:47;28.50;;;15.00;;
6209;SDS011;3138;52.550;13.148;2024-01-15T01:32:14;23.80;;;13.27;;
6209;SDS011;3138;52.550;13.148;2024-01-15T01:34:41;28.27;;;16.40;;
6209;SDS011;3138;52.550;13.148;2024-01-15T01:37:08;25.47;;;13.80;;
6209;SDS011;3138;52.550;13.148;2024-01-15T01:39:35;31.30;;;15.97;;
6209;SDS011;3138;52.550;13.148;2024-01-15T01:42:02;28.47;;;13.07;;
6209;SDS011;3138;52.550;13.148;2024-01-15T01:44:30;28.40;;;14.20;;
6209;SDS011;3138;52.550;13.148;2024-01-15T01:46:57;27.80;;;14.73;;
6209;SDS011;3138;52.550;13.148;2024-01-15T01:49:25;28.97;;;14.20;;
6209;SDS011;3138;52.550;13.148;2024-01-15T01:51:54;35.57;;;12.20;;
6209;SDS011;3138;52.550;13.148;2024-01-15T01:54:23;23.13;;;13.47;;
6209;SDS011;3138;52.550;13.148;2024-01-15T01:56:51;28.00;;;13.20;;
6209;SDS011;3138;52.550;13.148;2024-01-15T01:59:18;20.80;;;11.37;;
6209;SDS011;3138;52.550;13.148;2024-01-15T02:01:47;22.53;;;12.60;;
6209;SDS011;3138;52.550;13.148;2024-01-15T02:04:15;22.43;;;12.30;;
6209;SDS011;3138;52.550;13.148;2024-01-15T02:06:43;24.03;;;12.00;;
6209;SDS011;3138;52.550;13.148;2024-01-15T02:09:10;20.87;;;11.23;;
6209;SDS011;3138;52.550;13.148;2024-01-15T02:11:40;18.93;;;10.03;;
6209;SDS011;3138;52.550;13.148;2024-01-15T02:14:06;21.67;;;11.10;;
6209;SDS011;3138;52.550;13.148;2024-01-15T02:16:34;25.13;;;9.60;;
6209;SDS011;3138;52.550;13.148;2024-01-15T02:19:02;17.90;;;10.17;;
6209;SDS011;3138;52.550;13.148;2024-01-15T02:21:30;23.63;;;10.70;;
6209;SDS011;3138;52.550;13.148;2024-01-15T02:23:59;19.47;;;10.03;;
6209;SDS011;3138;52.550;13.148;2024-01-15T02:26:26;21.60;;;8.47;;
6209;SDS011;3138;52.550;13.148;2024-01-15T02:28:52;12.50;;;7.90;;
6209;SDS011;3138;52.550;13.148;2024-01-15T02:31:19;17.73;;;8.60;;
6209;SDS011;3138;52.550;13.148;2024-01-15T02:33:46;15.07;;;8.63;;
6209;SDS011;3138;52.550;13.148;2024-01-15T02:36:13;13.40;;;7.70;;
6209;SDS011;3138;52.550;13.148;2024-01-15T02:38:41;20.20;;;9.63;;
6209;SDS011;3138;52.550;13.148;2024-01-15T02:41:09;16.40;;;8.93;;
6209;SDS011;3138;52.550;13.148;2024-01-15T02:43:39;13.20;;;7.90;;
6209;SDS011;3138;52.550;13.148;2024-01-15T02:46:05;13.40;;;9.10;;
6209;SDS011;3138;52.550;13.148;2024-01-15T02:48:32;21.57;;;9.03;;
6209;SDS011;3138;52.550;13.148;2024-01-15T02:50:59;22.33;;;9.77;;
6209;SDS011;3138;52.550;13.148;2024-01-15T02:53:27;26.40;;;8.70;;
6209;SDS011;3138;52.550;13.148;2024-01-15T02:55:54;10.37;;;7.50;;
6209;SDS011;3138;52.550;13.148;2024-01-15T02:58:22;26.20;;;8.67;;
6209;SDS011;3138;52.550;13.148;2024-01-15T03:00:49;18.47;;;9.10;;
6209;SDS011;3138;52.550;13.148;2024-01-15T03:03:15;14.10;;;7.90;;
6209;SDS011;3138;52.550;13.148;2024-01-15T03:05:42;13.73;;;8.30;;
6209;SDS011;3138;52.550;13.148;2024-01-15T03:08:09;20.10;;;8.10;;
6209;SDS011;3138;52.550;13.148;2024-01-15T03:10:36;15.67;;;8.70;;
6209;SDS011;3138;52.550;13.148;2024-01-15T03:13:03;15.60;;;9.00;;
6209;SDS011;3138;52.550;13.148;2024-01-15T03:15:31;14.87;;;8.20;;
6209;SDS011;3138;52.550;13.148;2024-01-15T03:17:58;22.27;;;8.50;;
6209;SDS011;3138;52.550;13.148;2024-01-15T03:20:24;22.13;;;9.20;;
6209;SDS011;3138;52.550;13.148;2024-01-15T03:22:51;22.93;;;9.63;;
6209;SDS011;3138;52.550;13.148;2024-01-15T03:25:18;17.93;;;9.10;;
6209;SDS011;3138;52.550;13.148;2024-01-15T03:27:45;12.07;;;7.60;;
6209;SDS011;3138;52.550;13.148;2024-01-15T03:30:12;17.37;;;8.70;;
6209;SDS011;3138;52.550;13.148;2024-01-15T03:32:41;20.07;;;8.07;;
6209;SDS011;3138;52.550;13.148;2024-01-15T03:35:08;16.57;;;8.60;;
6209;SDS011;3138;52.550;13.148;2024-01-15T03:37:35;24.27;;;8.63;;
6209;SDS011;3138;52.550;13.148;2024-01-15T03:40:01;19.20;;;7.37;;
6209;SDS011;3138;52.550;13.148;2024-01-15T03:42:29;12.03;;;6.73;;
6209;SDS011;3138;52.550;13.148;2024-01-15T03:44:55;12.77;;;7.90;;
6209;SDS011;3138;52.550;13.148;2024-01-15T03:47:22;24.00;;;9.17;;
6209;SDS011;3138;52.550;13.148;2024-01-15T03:49:53;14.47;;;6.80;;
6209;SDS011;3138;52.550;13.148;2024-01-15T03:52:20;26.67;;;7.50;;
6209;SDS011;3138;52.550;13.148;2024-01-15T03:54:47;10.23;;;6.83;;
6209;SDS011;3138;52.550;13.148;2024-01-15T03:57:13;15.07;;;7.60;;
6209;SDS011;3138;52.550;13.148;2024-01-15T03:59:40;21.90;;;7.40;;
6209;SDS011;3138;52.550;13.148;2024-01-15T04:02:07;22.30;;;7.10;;
6209;SDS011;3138;52.550;13.148;2024-01-15T04:04:34;22.10;;;7.80;;
6209;SDS011;3138;52.550;13.148;2024-01-15T04:07:02;47.07;;;7.10;;
6209;SDS011;3138;52.550;13.148;2024-01-15T04:09:29;14.40;;;7.47;;
6209;SDS011;3138;52.550;13.148;2024-01-15T04:11:56;10.30;;;5.83;;
6209;SDS011;3138;52.550;13.148;2024-01-15T04:14:23;20.43;;;6.53;;
6209;SDS011;3138;52.550;13.148;2024-01-15T04:16:50;12.10;;;7.17;;
6209;SDS011;3138;52.550;13.148;2024-01-15T04:19:16;14.07;;;6.67;;
6209;SDS011;3138;52.550;13.148;2024-01-15T04:21:43;20.53;;;7.40;;
6209;SDS011;3138;52.550;13.148;2024-01-15T04:24:11;10.43;;;5.33;;
6209;SDS011;3138;52.550;13.148;2024-01-15T04:26:38;13.50;;;7.00;;
6209;SDS011;3138;52.550;13.148;2024-01-15T04:29:05;14.97;;;7.10;;
6209;SDS011;3138;52.550;13.148;2024-01-15T04:31:32;8.40;;;4.70;;
6209;SDS011;3138;52.550;13.148;2024-01-15T04:33:58;20.80;;;5.20;;
6209;SDS011;3138;52.550;13.148;2024-01-15T04:36:25;8.07;;;4.57;;
6209;SDS011;3138;52.550;13.148;2024-01-15T04:38:52;20.70;;;4.60;;
6209;SDS011;3138;52.550;13.148;2024-01-15T04:41:20;17.23;;;6.23;;
6209;SDS011;3138;52.550;13.148;2024-01-15T04:43:47;11.90;;;4.83;;
6209;SDS011;3138;52.550;13.148;2024-01-15T04:46:14;13.93;;;5.60;;
6209;SDS011;3138;52.550;13.148;2024-01-15T04:48:40;10.00;;;4.23;;
6209;SDS011;3138;52.550;13.148;2024-01-15T04:51:08;15.63;;;4.40;;
6209;SDS011;3138;52.550;13.148;2024-01-15T04:53:35;10.50;;;4.70;;
6209;SDS011;3138;52.550;13.148;2024-01-15T04:56:02;24.67;;;4.20;;
6209;SDS011;3138;52.550;13.148;2024-01-15T04:58:31;12.60;;;5.27;;
6209;SDS011;3138;52.550;13.148;2024-01-15T05:00:57;20.10;;;5.33;;
6209;SDS011;3138;52.550;13.148;2024-01-15T05:03:24;10.60;;;4.07;;
6209;SDS011;3138;52.550;13.148;2024-01-15T05:05:51;14.13;;;4.87;;
6209;SDS011;3138;52.550;13.148;2024-01-15T05:08:18;21.17;;;4.83;;
6209;SDS011;3138;52.550;13.148;2024-01-15T05:10:45;15.97;;;3.77;;
6209;SDS011;3138;52.550;13.148;2024-01-15T05:13:11;16.47;;;3.13;;
6209;SDS011;3138;52.550;13.148;2024-01-15T05:15:39;10.67;;;3.70;;
6209;SDS011;3138;52.550;13.148;2024-01-15T05:18:06;11.53;;;3.40;;
6209;SDS011;3138;52.550;13.148;2024-01-15T05:20:33;12.33;;;3.90;;
6209;SDS011;3138;52.550;13.148;2024-01-15T05:23:00;14.20;;;4.20;;
6209;SDS011;3138;52.550;13.148;2024-01-15T05:25:27;6.43;;;3.23;;
6209;SDS011;3138;52.550;13.148;2024-01-15T05:27:54;6.97;;;2.57;;
6209;SDS011;3138;52.550;13.148;2024-01-15T05:30:20;5.50;;;2.60;;
6209;SDS011;3138;52.550;13.148;2024-01-15T05:32:49;14.97;;;2.53;;
6209;SDS011;3138;52.550;13.148;2024-01-15T05:35:15;20.77;;;3.10;;
6209;SDS011;3138;52.550;13.148;2024-01-15T05:37:43;15.23;;;2.40;;
6209;SDS011;3138;52.550;13.148;2024-01-15T05:40:11;9.33;;;3.03;;
6209;SDS011;3138;52.550;13.148;2024-01-15T05:42:39;8.83;;;2.40;;
6209;SDS011;3138;52.550;13.148;2024-01-15T05:45:06;14.07;;;4.20;;
6209;SDS011;3138;52.550;13.148;2024-01-15T05:47:33;14.97;;;4.17;;
6209;SDS011;3138;52.550;13.148;2024-01-15T05:50:01;13.10;;;3.30;;
6209;SDS011;3138;52.550;13.148;2024-01-15T05:52:29;12.17;;;2.40;;
6209;SDS011;3138;52.550;13.148;2024-01-15T05:54:55;13.03;;;3.00;;
6209;SDS011;3138;52.550;13.148;2024-01-15T05:57:22;15.03;;;2.83;;
6209;SDS011;3138;52.550;13.148;2024-01-15T05:59:49;17.90;;;2.80;;
6209;SDS011;3138;52.550;13.148;2024-01-15T06:02:16;11.00;;;3.73;;
6209;SDS011;3138;52.550;13.148;2024-01-15T06:04:43;14.03;;;2.93;;
6209;SDS011;3138;52.550;13.148;2024-01-15T06:07:11;11.97;;;3.00;;
6209;SDS011;3138;52.550;13.148;2024-01-15T06:09:38;6.20;;;2.23;;
6209;SDS011;3138;52.550;13.148;2024-01-15T06:12:05;15.53;;;2.40;;
6209;SDS011;3138;52.550;13.148;2024-01-15T06:14:33;9.50;;;2.50;;
6209;SDS011;3138;52.550;13.148;2024-01-15T06:16:59;17.40;;;2.37;;
6209;SDS011;3138;52.550;13.148;2024-01-15T06:19:26;17.10;;;2.63;;
6209;SDS011;3138;52.550;13.148;2024-01-15T06:21:53;35.17;;;4.73;;
6209;SDS011;3138;52.550;13.148;2024-01-15T06:24:21;20.90;;;4.97;;
6209;SDS011;3138;52.550;13.148;2024-01-15T06:26:48;8.43;;;2.83;;
6209;SDS011;3138;52.550;13.148;2024-01-15T06:29:15;9.07;;;2.83;;
6209;SDS011;3138;52.550;13.148;2024-01-15T06:31:42;9.50;;;3.10;;
6209;SDS011;3138;52.550;13.148;2024-01-15T06:34:08;4.87;;;2.17;;
6209;SDS011;3138;52.550;13.148;2024-01-15T06:36:35;15.07;;;2.60;;
6209;SDS011;3138;52.550;13.148;2024-01-15T06:39:02;9.53;;;2.70;;
6209;SDS011;3138;52.550;13.148;2024-01-15T06:41:30;16.93;;;9.50;;
6209;SDS011;3138;52.550;13.148;2024-01-15T06:43:57;13.43;;;3.53;;
6209;SDS011;3138;52.550;13.148;2024-01-15T06:46:24;21.80;;;5.27;;
6209;SDS011;3138;52.550;13.148;2024-01-15T06:48:51;24.63;;;3.53;;
6209;SDS011;3138;52.550;13.148;2024-01-15T06:51:17;25.17;;;4.97;;
6209;SDS011;3138;52.550;13.148;2024-01-15T06:53:44;25.03;;;3.70;;
6209;SDS011;3138;52.550;13.148;2024-01-15T06:56:11;13.23;;;2.57;;
6209;SDS011;3138;52.550;13.148;2024-01-15T06:58:39;8.73;;;3.77;;
6209;SDS011;3138;52.550;13.148;2024-01-15T07:01:06;13.50;;;5.90;;
6209;SDS011;3138;52.550;13.148;2024-01-15T07:03:33;18.20;;;3.90;;
6209;SDS011;3138;52.550;13.148;2024-01-15T07:06:00;9.30;;;2.30;;
6209;SDS011;3138;52.550;13.148;2024-01-15T07:08:27;13.17;;;2.20;;
6209;SDS011;3138;52.550;13.148;2024-01-15T07:10:53;10.67;;;3.63;;
6209;SDS011;3138;52.550;13.148;2024-01-15T07:13:20;5.93;;;2.37;;
6209;SDS011;3138;52.550;13.148;2024-01-15T07:15:49;10.63;;;2.27;;
6209;SDS011;3138;52.550;13.148;2024-01-15T07:18:15;15.13;;;2.50;;
6209;SDS011;3138;52.550;13.148;2024-01-15T07:20:42;14.03;;;2.73;;
6209;SDS011;3138;52.550;13.148;2024-01-15T07:23:09;19.73;;;5.40;;
6209;SDS011;3138;52.550;13.148;2024-01-15T07:25:37;26.47;;;3.83;;
6209;SDS011;3138;52.550;13.148;2024-01-15T07:28:04;11.80;;;2.50;;
6209;SDS011;3138;52.550;13.148;2024-01-15T07:30:31;17.23;;;3.73;;
6209;SDS011;3138;52.550;13.148;2024-01-15T07:32:59;21.77;;;4.00;;
6209;SDS011;3138;52.550;13.148;2024-01-15T07:35:26;10.73;;;2.60;;
6209;SDS011;3138;52.550;13.148;2024-01-15T07:37:53;17.37;;;2.60;;
6209;SDS011;3138;52.550;13.148;2024-01-15T07:40:20;14.23;;;2.43;;
6209;SDS011;3138;52.550;13.148;2024-01-15T07:42:47;10.37;;;2.50;;
6209;SDS011;3138;52.550;13.148;2024-01-15T07:45:14;9.83;;;2.27;;
6209;SDS011;3138;52.550;13.148;2024-01-15T07:47:41;10.87;;;2.33;;
6209;SDS011;3138;52.550;13.148;2024-01-15T07:50:09;26.30;;;2.90;;
6209;SDS011;3138;52.550;13.148;2024-01-15T07:52:36;20.00;;;4.13;;
6209;SDS011;3138;52.550;13.148;2024-01-15T07:55:03;14.33;;;2.40;;
6209;SDS011;3138;52.550;13.148;2024-01-15T07:57:30;17.10;;;2.90;;
6209;SDS011;3138;52.550;13.148;2024-01-15T07:59:57;15.53;;;3.57;;
6209;SDS011;3138;52.550;13.148;2024-01-15T08:02:24;10.80;;;2.60;;
6209;SDS011;3138;52.550;13.148;2024-01-15T08:04:51;16.37;;;3.03;;
6209;SDS011;3138;52.550;13.148;2024-01-15T08:07:19;11.17;;;2.23;;
6209;SDS011;3138;52.550;13.148;2024-01-15T08:09:46;19.80;;;3.30;;
6209;SDS011;3138;52.550;13.148;2024-01-15T08:12:14;14.90;;;2.60;;
6209;SDS011;3138;52.550;13.148;2024-01-15T08:14:41;18.87;;;2.90;;
6209;SDS011;3138;52.550;13.148;2024-01-15T08:17:07;11.70;;;2.73;;
6209;SDS011;3138;52.550;13.148;2024-01-15T08:19:34;13.73;;;2.53;;
6209;SDS011;3138;52.550;13.148;2024-01-15T08:22:01;12.90;;;2.20;;
6209;SDS011;3138;52.550;13.148;2024-01-15T08:24:29;7.60;;;3.70;;
6209;SDS011;3138;52.550;13.148;2024-01-15T08:26:56;8.67;;;2.90;;
6209;SDS011;3138;52.550;13.148;2024-01-15T08:29:23;11.80;;;3.03;;
6209;SDS011;3138;52.550;13.148;2024-01-15T08:31:50;12.67;;;1.70;;
6209;SDS011;3138;52.550;13.148;2024-01-15T08:34:17;10.47;;;2.63;;
6209;SDS011;3138;52.550;13.148;2024-01-15T08:36:44;7.90;;;3.00;;
6209;SDS011;3138;52.550;13.148;2024-01-15T08:39:11;10.50;;;2.20;;
6209;SDS011;3138;52.550;13.148;2024-01-15T08:41:39;9.57;;;3.33;;
6209;SDS011;3138;52.550;13.148;2024-01-15T08:44:06;14.23;;;2.97;;
6209;SDS011;3138;52.550;13.148;2024-01-15T08:46:33;8.73;;;3.33;;
6209;SDS011;3138;52.550;13.148;2024-01-15T08:48:59;5.67;;;4.33;;
6209;SDS011;3138;52.550;13.148;2024-01-15T08:51:28;16.20;;;4.20;;
6209;SDS011;3138;52.550;13.148;2024-01-15T08:53:55;8.57;;;2.90;;
6209;SDS011;3138;52.550;13.148;2024-01-15T08:56:23;15.30;;;3.67;;
6209;SDS011;3138;52.550;13.148;2024-01-15T08:58:51;10.90;;;5.13;;
6209;SDS011;3138;52.550;13.148;2024-01-15T09:01:18;12.87;;;2.47;;
6209;SDS011;3138;52.550;13.148;2024-01-15T09:03:45;15.83;;;4.60;;
6209;SDS011;3138;52.550;13.148;2024-01-15T09:06:13;12.13;;;2.50;;
6209;SDS011;3138;52.550;13.148;2024-01-15T09:08:40;6.43;;;2.47;;
6209;SDS011;3138;52.550;13.148;2024-01-15T09:11:07;14.10;;;2.47;;
6209;SDS011;3138;52.550;13.148;2024-01-15T09:13:34;18.77;;;2.83;;
6209;SDS011;3138;52.550;13.148;2024-01-15T09:16:02;6.53;;;1.97;;
6209;SDS011;3138;52.550;13.148;2024-01-15T09:18:29;21.10;;;2.80;;
6209;SDS011;3138;52.550;13.148;2024-01-15T09:20:55;6.10;;;2.50;;
6209;SDS011;3138;52.550;13.148;2024-01-15T09:23:22;13.17;;;2.77;;
6209;SDS011;3138;52.550;13.148;2024-01-15T09:25:49;9.40;;;1.97;;
6209;SDS011;3138;52.550;13.148;2024-01-15T09:28:17;9.90;;;2.90;;
6209;SDS011;3138;52.550;13.148;2024-01-15T09:30:44;15.90;;;4.07;;
6209;SDS011;3138;52.550;13.148;2024-01-15T09:33:13;8.50;;;2.03;;
6209;SDS011;3138;52.550;13.148;2024-01-15T09:35:40;22.00;;;3.57;;
6209;SDS011;3138;52.550;13.148;2024-01-15T09:38:07;33.47;;;4.00;;
6209;SDS011;3138;52.550;13.148;2024-01-15T09:40:34;8.87;;;2.00;;
6209;SDS011;3138;52.550;13.148;2024-01-15T09:43:04;13.63;;;2.27;;
6209;SDS011;3138;52.550;13.148;2024-01-15T09:45:32;6.93;;;2.20;;
6209;SDS011;3138;52.550;13.148;2024-01-15T09:47:59;9.70;;;2.20;;
6209;SDS011;3138;52.550;13.148;2024-01-15T09:50:27;15.20;;;2.10;;
6209;SDS011;3138;52.550;13.148;2024-01-15T09:52:54;12.13;;;2.70;;
6209;SDS011;3138;52.550;13.148;2024-01-15T09:55:22;12.30;;;2.10;;
6209;SDS011;3138;52.550;13.148;2024-01-15T09:57:49;8.27;;;2.00;;
6209;SDS011;3138;52.550;13.148;2024-01-15T10:00:17;4.80;;;1.83;;
6209;SDS011;3138;52.550;13.148;2024-01-15T10:02:44;13.07;;;1.97;;
6209;SDS011;3138;52.550;13.148;2024-01-15T10:05:11;7.90;;;1.97;;
6209;SDS011;3138;52.550;13.148;2024-01-15T10:07:39;18.30;;;3.00;;
6209;SDS011;3138;52.550;13.148;2024-01-15T10:10:07;18.47;;;2.27;;
6209;SDS011;3138;52.550;13.148;2024-01-15T10:12:34;7.30;;;1.97;;
6209;SDS011;3138;52.550;13.148;2024-01-15T10:15:02;4.57;;;1.80;;
6209;SDS011;3138;52.550;13.148;2024-01-15T10:17:29;6.10;;;1.97;;
6209;SDS011;3138;52.550;13.148;2024-01-15T10:19:57;11.60;;;2.30;;
6209;SDS011;3138;52.550;13.148;2024-01-15T10:22:23;20.30;;;10.93;;
6209;SDS011;3138;52.550;13.148;2024-01-15T10:24:52;11.70;;;4.10;;
6209;SDS011;3138;52.550;13.148;2024-01-15T10:27:19;18.83;;;2.80;;
6209;SDS011;3138;52.550;13.148;2024-01-15T10:29:46;5.90;;;2.67;;
6209;SDS011;3138;52.550;13.148;2024-01-15T10:32:14;8.70;;;3.40;;
6209;SDS011;3138;52.550;13.148;2024-01-15T10:34:40;6.43;;;2.13;;
6209;SDS011;3138;52.550;13.148;2024-01-15T10:37:07;8.30;;;1.87;;
6209;SDS011;3138;52.550;13.148;2024-01-15T10:39:35;7.40;;;2.03;;
6209;SDS011;3138;52.550;13.148;2024-01-15T10:42:04;8.27;;;1.83;;
6209;SDS011;3138;52.550;13.148;2024-01-15T10:44:32;9.70;;;1.80;;
6209;SDS011;3138;52.550;13.148;2024-01-15T10:46:59;6.00;;;2.37;;
6209;SDS011;3138;52.550;13.148;2024-01-15T10:49:26;4.97;;;1.80;;
6209;SDS011;3138;52.550;13.148;2024-01-15T10:51:54;8.17;;;1.60;;
6209;SDS011;3138;52.550;13.148;2024-01-15T10:54:23;2.27;;;1.83;;
6209;SDS011;3138;52.550;13.148;2024-01-15T10:56:50;11.07;;;1.93;;
6209;SDS011;3138;52.550;13.148;2024-01-15T10:59:20;3.70;;;1.20;;
6209;SDS011;3138;52.550;13.148;2024-01-15T11:01:48;2.37;;;1.17;;
6209;SDS011;3138;52.550;13.148;2024-01-15T11:04:18;5.80;;;1.67;;
6209;SDS011;3138;52.550;13.148;2024-01-15T11:06:46;1.80;;;0.80;;
6209;SDS011;3138;52.550;13.148;2024-01-15T11:09:14;3.10;;;1.00;;
6209;SDS011;3138;52.550;13.148;2024-01-15T11:11:43;4.10;;;1.70;;
6209;SDS011;3138;52.550;13.148;2024-01-15T11:14:12;1.10;;;1.00;;
6209;SDS011;3138;52.550;13.148;2024-01-15T11:17:04;3.20;;;1.27;;
6209;SDS011;3138;52.550;13.148;2024-01-15T11:19:37;2.70;;;1.00;;
6209;SDS011;3138;52.550;13.148;2024-01-15T11:22:08;1.50;;;1.40;;
6209;SDS011;3138;52.550;13.148;2024-01-15T11:24:37;4.63;;;1.83;;
6209;SDS011;3138;52.550;13.148;2024-01-15T11:27:04;5.30;;;1.87;;
6209;SDS011;3138;52.550;13.148;2024-01-15T11:29:33;4.30;;;2.07;;
6209;SDS011;3138;52.550;13.148;2024-01-15T11:32:05;4.47;;;3.10;;
6209;SDS011;3138;52.550;13.148;2024-01-15T11:34:51;9.40;;;2.73;;
6209;SDS011;3138;52.550;13.148;2024-01-15T11:37:22;2.60;;;2.00;;
6209;SDS011;3138;52.550;13.148;2024-01-15T11:39:51;4.70;;;2.50;;
6209;SDS011;3138;52.550;13.148;2024-01-15T11:42:19;2.10;;;1.77;;
6209;SDS011;3138;52.550;13.148;2024-01-15T11:44:47;6.00;;;1.70;;
6209;SDS011;3138;52.550;13.148;2024-01-15T11:47:15;3.87;;;2.23;;
6209;SDS011;3138;52.550;13.148;2024-01-15T11:50:00;2.73;;;2.53;;
6209;SDS011;3138;52.550;13.148;2024-01-15T11:52:31;8.00;;;4.47;;
6209;SDS011;3138;52.550;13.148;2024-01-15T11:57:45;2.23;;;2.13;;
6209;SDS011;3138;52.550;13.148;2024-01-15T12:00:13;4.67;;;2.20;;
6209;SDS011;3138;52.550;13.148;2024-01-15T12:02:42;2.10;;;1.67;;
6209;SDS011;3138;52.550;13.148;2024-01-15T12:05:09;3.30;;;1.80;;
6209;SDS011;3138;52.550;13.148;2024-01-15T12:07:38;2.00;;;1.90;;
6209;SDS011;3138;52.550;13.148;2024-01-15T12:10:08;3.37;;;2.37;;
6209;SDS011;3138;52.550;13.148;2024-01-15T12:12:39;2.37;;;2.17;;
6209;SDS011;3138;52.550;13.148;2024-01-15T12:15:19;3.23;;;1.63;;
6209;SDS011;3138;52.550;13.148;2024-01-15T12:17:48;1.00;;;1.00;;
6209;SDS011;3138;52.550;13.148;2024-01-15T12:20:15;5.63;;;1.73;;
6209;SDS011;3138;52.550;13.148;2024-01-15T12:22:43;3.30;;;2.20;;
6209;SDS011;3138;52.550;13.148;2024-01-15T12:25:11;10.20;;;1.50;;
6209;SDS011;3138;52.550;13.148;2024-01-15T12:27:38;1.90;;;1.20;;
6209;SDS011;3138;52.550;13.148;2024-01-15T12:30:05;3.20;;;1.37;;
6209;SDS011;3138;52.550;13.148;2024-01-15T12:32:34;2.03;;;0.80;;
6209;SDS011;3138;52.550;13.148;2024-01-15T12:35:02;1.10;;;1.00;;
6209;SDS011;3138;52.550;13.148;2024-01-15T12:37:30;1.07;;;0.97;;
6209;SDS011;3138;52.550;13.148;2024-01-15T12:39:58;4.33;;;1.20;;
6209;SDS011;3138;52.550;13.148;2024-01-15T12:42:25;2.27;;;1.20;;
6209;SDS011;3138;52.550;13.148;2024-01-15T12:44:54;1.10;;;1.00;;
6209;SDS011;3138;52.550;13.148;2024-01-15T12:47:22;8.23;;;1.30;;
6209;SDS011;3138;52.550;13.148;2024-01-15T12:49:51;1.60;;;1.47;;
6209;SDS011;3138;52.550;13.148;2024-01-15T12:52:21;2.73;;;1.60;;
6209;SDS011;3138;52.550;13.148;2024-01-15T12:54:48;1.00;;;1.00;;
6209;SDS011;3138;52.550;13.148;2024-01-15T12:57:15;5.30;;;1.80;;
6209;SDS011;3138;52.550;13.148;2024-01-15T12:59:42;3.33;;;1.60;;
6209;SDS011;3138;52.550;13.148;2024-01-15T13:02:09;2.97;;;1.27;;
6209;SDS011;3138;52.550;13.148;2024-01-15T13:04:37;1.40;;;1.30;;
6209;SDS011;3138;52.550;13.148;2024-01-15T13:07:04;12.90;;;1.60;;
6209;SDS011;3138;52.550;13.148;2024-01-15T13:09:32;4.83;;;2.80;;
6209;SDS011;3138;52.550;13.148;2024-01-15T13:11:59;4.97;;;2.30;;
6209;SDS011;3138;52.550;13.148;2024-01-15T13:14:26;4.33;;;1.20;;
6209;SDS011;3138;52.550;13.148;2024-01-15T13:16:54;9.57;;;6.73;;
6209;SDS011;3138;52.550;13.148;2024-01-15T13:19:21;4.73;;;2.00;;
6209;SDS011;3138;52.550;13.148;2024-01-15T13:21:48;3.60;;;3.30;;
6209;SDS011;3138;52.550;13.148;2024-01-15T13:24:15;4.73;;;1.73;;
6209;SDS011;3138;52.550;13.148;2024-01-15T13:26:43;5.53;;;1.60;;
6209;SDS011;3138;52.550;13.148;2024-01-15T13:29:10;4.40;;;1.73;;
6209;SDS011;3138;52.550;13.148;2024-01-15T13:31:37;4.83;;;2.30;;
6209;SDS011;3138;52.550;13.148;2024-01-15T13:34:04;1.50;;;1.40;;
6209;SDS011;3138;52.550;13.148;2024-01-15T13:36:32;3.80;;;1.70;;
6209;SDS011;3138;52.550;13.148;2024-01-15T13:38:59;5.73;;;2.00;;
6209;SDS011;3138;52.550;13.148;2024-01-15T13:41:25;6.80;;;2.43;;
6209;SDS011;3138;52.550;13.148;2024-01-15T13:43:56;5.50;;;1.30;;
6209;SDS011;3138;52.550;13.148;2024-01-15T13:46:25;5.90;;;2.33;;
6209;SDS011;3138;52.550;13.148;2024-01-15T13:48:52;4.53;;;1.33;;
6209;SDS011;3138;52.550;13.148;2024-01-15T13:51:21;4.53;;;1.70;;
6209;SDS011;3138;52.550;13.148;2024-01-15T13:53:48;2.07;;;1.87;;
6209;SDS011;3138;52.550;13.148;2024-01-15T13:56:15;10.97;;;2.93;;
6209;SDS011;3138;52.550;13.148;2024-01-15T13:58:42;11.83;;;3.40;;
6209;SDS011;3138;52.550;13.148;2024-01-15T14:01:11;3.90;;;1.77;;
6209;SDS011;3138;52.550;13.148;2024-01-15T14:03:38;4.60;;;2.07;;
6209;SDS011;3138;52.550;13.148;2024-01-15T14:06:04;13.93;;;3.10;;
6209;SDS011;3138;52.550;13.148;2024-01-15T14:08:34;4.70;;;1.97;;
6209;SDS011;3138;52.550;13.148;2024-01-15T14:11:01;5.83;;;2.20;;
6209;SDS011;3138;52.550;13.148;2024-01-15T14:13:28;12.17;;;2.10;;
6209;SDS011;3138;52.550;13.148;2024-01-15T14:15:55;14.00;;;2.20;;
6209;SDS011;3138;52.550;13.148;2024-01-15T14:18:23;14.93;;;2.60;;
6209;SDS011;3138;52.550;13.148;2024-01-15T14:20:50;5.77;;;2.10;;
6209;SDS011;3138;52.550;13.148;2024-01-15T14:23:18;10.80;;;1.20;;
6209;SDS011;3138;52.550;13.148;2024-01-15T14:25:45;4.90;;;1.77;;
6209;SDS011;3138;52.550;13.148;2024-01-15T14:28:12;2.87;;;1.57;;
6209;SDS011;3138;52.550;13.148;2024-01-15T14:30:39;5.53;;;1.70;;
6209;SDS011;3138;52.550;13.148;2024-01-15T14:33:05;2.83;;;1.37;;
6209;SDS011;3138;52.550;13.148;2024-01-15T14:35:34;2.67;;;1.77;;
6209;SDS011;3138;52.550;13.148;2024-01-15T14:38:01;5.50;;;1.87;;
6209;SDS011;3138;52.550;13.148;2024-01-15T14:40:28;10.33;;;2.63;;
6209;SDS011;3138;52.550;13.148;2024-01-15T14:42:55;25.23;;;2.00;;
6209;SDS011;3138;52.550;13.148;2024-01-15T14:45:22;19.30;;;2.07;;
6209;SDS011;3138;52.550;13.148;2024-01-15T14:47:48;8.57;;;1.90;;
6209;SDS011;3138;52.550;13.148;2024-01-15T14:50:15;5.83;;;1.97;;
6209;SDS011;3138;52.550;13.148;2024-01-15T14:52:43;6.83;;;1.43;;
6209;SDS011;3138;52.550;13.148;2024-01-15T14:55:11;11.03;;;3.03;;